Strona główna
METAR-TAF:

METAR-TAF

Lotnisko :

Port lotniczy Kota Kinabalu

Kota Kinabalu, Malezja

Szerokość geograficzna: 05-56N, Długość geograficzna: 116-03E, wysokość: 3 m

Aktualna obserwacja pogody

Raport powstał 21 minut temu, godzina 03:30 UTC
Wiatr 7 kt od północ, zmienny między zachód i wschodnio-północny wschód
Temperatura 33°C
Wilgotność 63%
Ciśnienie 1011 hPa
Widzialność 10 km lub więcej
Mało chmury na wysokości 1500 ft
Przerywane chmury na wysokości 28000 ft

METAR: WBKK 120330Z 36007KT 270V070 9999 FEW015 BKN280 33/25 Q1011 NOSIG

czas: 11:51 (03:51 UTC)

Prognoza

Raport powstał 4 godziny i 51 minut temu, godzina 23:00 UTC
Prognoza ważna od 12 godzina 00 UTC do 13 godzina 00 UTC
Wiatr 6 kt od północny zachód
Widzialność 10 km lub więcej
Mało chmury na wysokości 1500 ft
Stopniowe zmiany
od 12 godzina 10 UTC do 12 godzina 12 UTC
Wiatr 5 kt od północny wschód

TAF: WBKK 112300Z 1200/1300 32006KT 9999 FEW015 BECMG 1210/1212 04005KT

Obserwacja i prognoza pogody dla ponad 4000 lotnisk (raport METAR i TAF).

Dostępne stacje oznaczono żółtymi i czerwonymi punktami na mapie.

Najedź kursorem aby zobaczyć nazwę stacji.

Kliknij aby zobaczyć obserwacje i prognozy pogody.

Aby zmienić mapę: kliknij na zielony przycisk z czarnym krzyżykiem, aby powiększyć; na zielony przycisk z myślnikiem, aby pomniejszyć; na zielone strzałki, aby przejść do map sąsiednich.


METAR-TAF: